sensor_id;sensor_type;location;lat;lon;timestamp;P1;durP1;ratioP1;P2;durP2;ratioP2
69956;SDS011;57283;54.816;9.482;2023-07-28T00:01:32;10.15;;;5.43;;
69956;SDS011;57283;54.816;9.482;2023-07-28T00:04:00;10.23;;;5.78;;
69956;SDS011;57283;54.816;9.482;2023-07-28T00:06:28;12.10;;;5.88;;
69956;SDS011;57283;54.816;9.482;2023-07-28T00:09:00;10.00;;;5.83;;
69956;SDS011;57283;54.816;9.482;2023-07-28T00:11:28;10.10;;;5.68;;
69956;SDS011;57283;54.816;9.482;2023-07-28T00:13:57;10.15;;;5.78;;
69956;SDS011;57283;54.816;9.482;2023-07-28T00:16:24;10.63;;;5.60;;
69956;SDS011;57283;54.816;9.482;2023-07-28T00:18:52;9.38;;;5.53;;
69956;SDS011;57283;54.816;9.482;2023-07-28T00:21:19;8.90;;;5.07;;
69956;SDS011;57283;54.816;9.482;2023-07-28T00:23:47;8.23;;;5.20;;
69956;SDS011;57283;54.816;9.482;2023-07-28T00:26:15;10.05;;;5.45;;
69956;SDS011;57283;54.816;9.482;2023-07-28T00:28:42;9.65;;;5.60;;
69956;SDS011;57283;54.816;9.482;2023-07-28T00:31:11;8.68;;;5.32;;
69956;SDS011;57283;54.816;9.482;2023-07-28T00:33:39;11.30;;;5.60;;
69956;SDS011;57283;54.816;9.482;2023-07-28T00:36:06;9.88;;;5.53;;
69956;SDS011;57283;54.816;9.482;2023-07-28T00:38:34;12.07;;;5.95;;
69956;SDS011;57283;54.816;9.482;2023-07-28T00:41:02;10.88;;;5.72;;
69956;SDS011;57283;54.816;9.482;2023-07-28T00:43:30;9.30;;;5.28;;
69956;SDS011;57283;54.816;9.482;2023-07-28T00:45:57;10.00;;;5.70;;
69956;SDS011;57283;54.816;9.482;2023-07-28T00:48:26;10.60;;;5.85;;
69956;SDS011;57283;54.816;9.482;2023-07-28T00:50:54;10.10;;;6.00;;
69956;SDS011;57283;54.816;9.482;2023-07-28T00:53:22;11.10;;;5.88;;
69956;SDS011;57283;54.816;9.482;2023-07-28T00:55:50;10.38;;;5.65;;
69956;SDS011;57283;54.816;9.482;2023-07-28T00:58:18;11.03;;;5.80;;
69956;SDS011;57283;54.816;9.482;2023-07-28T01:00:46;9.77;;;5.57;;
69956;SDS011;57283;54.816;9.482;2023-07-28T01:03:13;10.65;;;6.05;;
69956;SDS011;57283;54.816;9.482;2023-07-28T01:05:44;11.32;;;5.70;;
69956;SDS011;57283;54.816;9.482;2023-07-28T01:08:16;9.25;;;5.20;;
69956;SDS011;57283;54.816;9.482;2023-07-28T01:10:44;9.47;;;5.53;;
69956;SDS011;57283;54.816;9.482;2023-07-28T01:13:12;10.55;;;5.90;;
69956;SDS011;57283;54.816;9.482;2023-07-28T01:15:40;9.68;;;5.22;;
69956;SDS011;57283;54.816;9.482;2023-07-28T01:18:07;9.05;;;5.28;;
69956;SDS011;57283;54.816;9.482;2023-07-28T01:20:35;9.20;;;5.50;;
69956;SDS011;57283;54.816;9.482;2023-07-28T01:23:07;8.93;;;5.53;;
69956;SDS011;57283;54.816;9.482;2023-07-28T01:25:48;8.85;;;4.95;;
69956;SDS011;57283;54.816;9.482;2023-07-28T01:28:18;10.02;;;4.60;;
69956;SDS011;57283;54.816;9.482;2023-07-28T01:30:46;9.60;;;5.20;;
69956;SDS011;57283;54.816;9.482;2023-07-28T01:33:14;8.93;;;4.82;;
69956;SDS011;57283;54.816;9.482;2023-07-28T01:35:41;8.73;;;4.67;;
69956;SDS011;57283;54.816;9.482;2023-07-28T01:38:09;8.85;;;4.95;;
69956;SDS011;57283;54.816;9.482;2023-07-28T01:40:36;9.23;;;5.07;;
69956;SDS011;57283;54.816;9.482;2023-07-28T01:43:04;7.65;;;4.57;;
69956;SDS011;57283;54.816;9.482;2023-07-28T01:45:33;7.75;;;4.20;;
69956;SDS011;57283;54.816;9.482;2023-07-28T01:48:01;7.53;;;4.47;;
69956;SDS011;57283;54.816;9.482;2023-07-28T01:50:28;9.05;;;5.45;;
69956;SDS011;57283;54.816;9.482;2023-07-28T01:52:56;8.32;;;4.78;;
69956;SDS011;57283;54.816;9.482;2023-07-28T01:55:23;10.13;;;5.00;;
69956;SDS011;57283;54.816;9.482;2023-07-28T01:57:53;9.35;;;4.90;;
69956;SDS011;57283;54.816;9.482;2023-07-28T02:00:21;9.47;;;5.20;;
69956;SDS011;57283;54.816;9.482;2023-07-28T02:02:51;11.90;;;5.65;;
69956;SDS011;57283;54.816;9.482;2023-07-28T02:05:18;11.07;;;5.93;;
69956;SDS011;57283;54.816;9.482;2023-07-28T02:07:46;9.35;;;5.50;;
69956;SDS011;57283;54.816;9.482;2023-07-28T02:10:14;11.35;;;5.57;;
69956;SDS011;57283;54.816;9.482;2023-07-28T02:12:42;8.73;;;5.30;;
69956;SDS011;57283;54.816;9.482;2023-07-28T02:15:09;10.13;;;5.60;;
69956;SDS011;57283;54.816;9.482;2023-07-28T02:17:37;10.18;;;5.60;;
69956;SDS011;57283;54.816;9.482;2023-07-28T02:20:07;9.30;;;5.43;;
69956;SDS011;57283;54.816;9.482;2023-07-28T02:22:37;11.57;;;5.32;;
69956;SDS011;57283;54.816;9.482;2023-07-28T02:25:05;9.87;;;5.53;;
69956;SDS011;57283;54.816;9.482;2023-07-28T02:27:32;9.95;;;5.82;;
69956;SDS011;57283;54.816;9.482;2023-07-28T02:30:00;9.25;;;5.22;;
69956;SDS011;57283;54.816;9.482;2023-07-28T02:32:27;10.10;;;5.20;;
69956;SDS011;57283;54.816;9.482;2023-07-28T02:34:56;9.07;;;5.07;;
69956;SDS011;57283;54.816;9.482;2023-07-28T02:37:25;9.67;;;4.63;;
69956;SDS011;57283;54.816;9.482;2023-07-28T02:39:52;11.30;;;5.28;;
69956;SDS011;57283;54.816;9.482;2023-07-28T02:42:20;9.88;;;5.63;;
69956;SDS011;57283;54.816;9.482;2023-07-28T02:44:50;10.25;;;5.40;;
69956;SDS011;57283;54.816;9.482;2023-07-28T02:47:17;9.40;;;5.80;;
69956;SDS011;57283;54.816;9.482;2023-07-28T02:49:45;10.07;;;5.27;;
69956;SDS011;57283;54.816;9.482;2023-07-28T02:52:13;9.70;;;5.40;;
69956;SDS011;57283;54.816;9.482;2023-07-28T02:54:42;11.73;;;6.00;;
69956;SDS011;57283;54.816;9.482;2023-07-28T02:57:09;10.55;;;5.80;;
69956;SDS011;57283;54.816;9.482;2023-07-28T02:59:37;10.68;;;6.55;;
69956;SDS011;57283;54.816;9.482;2023-07-28T03:02:05;11.70;;;6.30;;
69956;SDS011;57283;54.816;9.482;2023-07-28T03:04:32;10.23;;;6.05;;
69956;SDS011;57283;54.816;9.482;2023-07-28T03:07:00;11.25;;;6.43;;
69956;SDS011;57283;54.816;9.482;2023-07-28T03:09:27;10.38;;;6.00;;
69956;SDS011;57283;54.816;9.482;2023-07-28T03:11:56;10.65;;;6.78;;
69956;SDS011;57283;54.816;9.482;2023-07-28T03:14:24;10.17;;;6.50;;
69956;SDS011;57283;54.816;9.482;2023-07-28T03:16:52;10.80;;;6.60;;
69956;SDS011;57283;54.816;9.482;2023-07-28T03:19:19;11.90;;;6.55;;
69956;SDS011;57283;54.816;9.482;2023-07-28T03:21:47;10.43;;;6.13;;
69956;SDS011;57283;54.816;9.482;2023-07-28T03:24:14;10.55;;;6.43;;
69956;SDS011;57283;54.816;9.482;2023-07-28T03:26:42;11.53;;;6.60;;
69956;SDS011;57283;54.816;9.482;2023-07-28T03:29:11;11.70;;;6.70;;
69956;SDS011;57283;54.816;9.482;2023-07-28T03:31:38;10.77;;;6.60;;
69956;SDS011;57283;54.816;9.482;2023-07-28T03:34:06;12.27;;;6.90;;
69956;SDS011;57283;54.816;9.482;2023-07-28T03:36:34;12.05;;;6.68;;
69956;SDS011;57283;54.816;9.482;2023-07-28T03:39:02;10.83;;;6.07;;
69956;SDS011;57283;54.816;9.482;2023-07-28T03:41:29;10.68;;;6.70;;
69956;SDS011;57283;54.816;9.482;2023-07-28T03:43:57;11.18;;;6.63;;
69956;SDS011;57283;54.816;9.482;2023-07-28T03:46:26;9.35;;;6.13;;
69956;SDS011;57283;54.816;9.482;2023-07-28T03:48:56;10.00;;;6.28;;
69956;SDS011;57283;54.816;9.482;2023-07-28T03:51:24;11.33;;;6.40;;
69956;SDS011;57283;54.816;9.482;2023-07-28T03:53:52;13.02;;;6.68;;
69956;SDS011;57283;54.816;9.482;2023-07-28T03:56:20;11.55;;;7.00;;
69956;SDS011;57283;54.816;9.482;2023-07-28T03:58:47;12.25;;;6.80;;
69956;SDS011;57283;54.816;9.482;2023-07-28T04:01:15;9.82;;;6.32;;
69956;SDS011;57283;54.816;9.482;2023-07-28T04:03:44;11.47;;;6.20;;
69956;SDS011;57283;54.816;9.482;2023-07-28T04:06:12;10.68;;;6.75;;
69956;SDS011;57283;54.816;9.482;2023-07-28T04:08:40;10.93;;;6.70;;
69956;SDS011;57283;54.816;9.482;2023-07-28T04:11:08;10.50;;;6.53;;
69956;SDS011;57283;54.816;9.482;2023-07-28T04:13:35;9.98;;;6.45;;
69956;SDS011;57283;54.816;9.482;2023-07-28T04:16:03;10.90;;;6.57;;
69956;SDS011;57283;54.816;9.482;2023-07-28T04:18:31;10.85;;;6.60;;
69956;SDS011;57283;54.816;9.482;2023-07-28T04:21:00;10.80;;;6.43;;
69956;SDS011;57283;54.816;9.482;2023-07-28T04:23:28;10.15;;;6.65;;
69956;SDS011;57283;54.816;9.482;2023-07-28T04:25:56;12.30;;;7.25;;
69956;SDS011;57283;54.816;9.482;2023-07-28T04:28:24;12.43;;;7.00;;
69956;SDS011;57283;54.816;9.482;2023-07-28T04:30:51;10.73;;;6.80;;
69956;SDS011;57283;54.816;9.482;2023-07-28T04:33:19;10.68;;;6.53;;
69956;SDS011;57283;54.816;9.482;2023-07-28T04:35:46;12.35;;;7.05;;
69956;SDS011;57283;54.816;9.482;2023-07-28T04:38:15;12.23;;;6.72;;
69956;SDS011;57283;54.816;9.482;2023-07-28T04:40:43;12.27;;;7.17;;
69956;SDS011;57283;54.816;9.482;2023-07-28T04:43:11;12.05;;;7.18;;
69956;SDS011;57283;54.816;9.482;2023-07-28T04:45:38;12.40;;;6.95;;
69956;SDS011;57283;54.816;9.482;2023-07-28T04:48:06;12.10;;;7.00;;
69956;SDS011;57283;54.816;9.482;2023-07-28T04:50:34;11.70;;;7.35;;
69956;SDS011;57283;54.816;9.482;2023-07-28T04:53:02;13.37;;;7.57;;
69956;SDS011;57283;54.816;9.482;2023-07-28T04:55:31;11.63;;;6.82;;
69956;SDS011;57283;54.816;9.482;2023-07-28T04:57:59;13.20;;;6.93;;
69956;SDS011;57283;54.816;9.482;2023-07-28T05:00:27;11.55;;;6.90;;
69956;SDS011;57283;54.816;9.482;2023-07-28T05:02:54;10.93;;;6.90;;
69956;SDS011;57283;54.816;9.482;2023-07-28T05:05:22;10.27;;;6.43;;
69956;SDS011;57283;54.816;9.482;2023-07-28T05:07:50;11.25;;;7.35;;
69956;SDS011;57283;54.816;9.482;2023-07-28T05:10:17;10.80;;;6.72;;
69956;SDS011;57283;54.816;9.482;2023-07-28T05:12:46;11.27;;;6.40;;
69956;SDS011;57283;54.816;9.482;2023-07-28T05:15:14;10.27;;;6.65;;
69956;SDS011;57283;54.816;9.482;2023-07-28T05:17:42;9.93;;;5.60;;
69956;SDS011;57283;54.816;9.482;2023-07-28T05:20:10;9.18;;;5.85;;
69956;SDS011;57283;54.816;9.482;2023-07-28T05:22:38;7.78;;;5.80;;
69956;SDS011;57283;54.816;9.482;2023-07-28T05:25:06;9.48;;;6.78;;
69956;SDS011;57283;54.816;9.482;2023-07-28T05:27:34;7.97;;;5.50;;
69956;SDS011;57283;54.816;9.482;2023-07-28T05:30:03;8.30;;;6.00;;
69956;SDS011;57283;54.816;9.482;2023-07-28T05:32:31;8.35;;;5.82;;
69956;SDS011;57283;54.816;9.482;2023-07-28T05:34:58;8.05;;;5.45;;
69956;SDS011;57283;54.816;9.482;2023-07-28T05:37:26;7.75;;;5.45;;
69956;SDS011;57283;54.816;9.482;2023-07-28T05:39:54;7.72;;;5.50;;
69956;SDS011;57283;54.816;9.482;2023-07-28T05:42:21;8.20;;;5.50;;
69956;SDS011;57283;54.816;9.482;2023-07-28T05:44:50;8.32;;;5.53;;
69956;SDS011;57283;54.816;9.482;2023-07-28T05:47:20;9.10;;;6.00;;
69956;SDS011;57283;54.816;9.482;2023-07-28T05:49:48;7.55;;;5.22;;
69956;SDS011;57283;54.816;9.482;2023-07-28T05:52:16;8.30;;;5.85;;
69956;SDS011;57283;54.816;9.482;2023-07-28T05:54:43;7.50;;;5.50;;
69956;SDS011;57283;54.816;9.482;2023-07-28T05:57:11;10.13;;;6.50;;
69956;SDS011;57283;54.816;9.482;2023-07-28T05:59:39;8.20;;;5.90;;
69956;SDS011;57283;54.816;9.482;2023-07-28T06:02:06;7.80;;;5.40;;
69956;SDS011;57283;54.816;9.482;2023-07-28T06:04:35;9.52;;;6.03;;
69956;SDS011;57283;54.816;9.482;2023-07-28T06:07:03;7.43;;;5.40;;
69956;SDS011;57283;54.816;9.482;2023-07-28T06:09:31;8.95;;;5.80;;
69956;SDS011;57283;54.816;9.482;2023-07-28T06:11:59;8.32;;;5.72;;
69956;SDS011;57283;54.816;9.482;2023-07-28T06:14:27;8.85;;;5.70;;
69956;SDS011;57283;54.816;9.482;2023-07-28T06:16:54;8.40;;;5.85;;
69956;SDS011;57283;54.816;9.482;2023-07-28T06:19:22;9.20;;;5.70;;
69956;SDS011;57283;54.816;9.482;2023-07-28T06:21:52;7.50;;;5.70;;
69956;SDS011;57283;54.816;9.482;2023-07-28T06:24:19;9.45;;;6.28;;
69956;SDS011;57283;54.816;9.482;2023-07-28T06:26:47;7.82;;;5.80;;
69956;SDS011;57283;54.816;9.482;2023-07-28T06:29:16;6.90;;;5.13;;
69956;SDS011;57283;54.816;9.482;2023-07-28T06:31:44;7.60;;;4.80;;
69956;SDS011;57283;54.816;9.482;2023-07-28T06:34:11;7.32;;;4.88;;
69956;SDS011;57283;54.816;9.482;2023-07-28T06:36:39;6.95;;;4.70;;
69956;SDS011;57283;54.816;9.482;2023-07-28T06:39:08;7.07;;;4.68;;
69956;SDS011;57283;54.816;9.482;2023-07-28T06:41:36;7.57;;;5.03;;
69956;SDS011;57283;54.816;9.482;2023-07-28T06:44:04;7.43;;;4.93;;
69956;SDS011;57283;54.816;9.482;2023-07-28T06:46:32;6.47;;;5.30;;
69956;SDS011;57283;54.816;9.482;2023-07-28T06:48:59;7.72;;;4.68;;
69956;SDS011;57283;54.816;9.482;2023-07-28T06:51:27;6.88;;;5.07;;
69956;SDS011;57283;54.816;9.482;2023-07-28T06:53:55;7.75;;;4.97;;
69956;SDS011;57283;54.816;9.482;2023-07-28T06:56:24;8.23;;;5.00;;
69956;SDS011;57283;54.816;9.482;2023-07-28T06:58:52;6.70;;;4.78;;
69956;SDS011;57283;54.816;9.482;2023-07-28T07:01:37;6.85;;;4.78;;
69956;SDS011;57283;54.816;9.482;2023-07-28T07:04:05;6.95;;;4.30;;
69956;SDS011;57283;54.816;9.482;2023-07-28T07:06:33;6.70;;;5.07;;
69956;SDS011;57283;54.816;9.482;2023-07-28T07:09:00;7.80;;;4.93;;
69956;SDS011;57283;54.816;9.482;2023-07-28T07:11:31;6.00;;;4.50;;
69956;SDS011;57283;54.816;9.482;2023-07-28T07:13:59;6.38;;;4.93;;
69956;SDS011;57283;54.816;9.482;2023-07-28T07:16:26;5.88;;;4.70;;
69956;SDS011;57283;54.816;9.482;2023-07-28T07:18:54;6.45;;;4.60;;
69956;SDS011;57283;54.816;9.482;2023-07-28T07:21:22;7.13;;;4.70;;
69956;SDS011;57283;54.816;9.482;2023-07-28T07:23:49;7.18;;;4.78;;
69956;SDS011;57283;54.816;9.482;2023-07-28T07:26:17;6.82;;;4.80;;
69956;SDS011;57283;54.816;9.482;2023-07-28T07:28:46;7.15;;;4.45;;
69956;SDS011;57283;54.816;9.482;2023-07-28T07:31:14;5.50;;;4.40;;
69956;SDS011;57283;54.816;9.482;2023-07-28T07:33:41;6.03;;;4.40;;
69956;SDS011;57283;54.816;9.482;2023-07-28T07:36:11;6.25;;;4.38;;
69956;SDS011;57283;54.816;9.482;2023-07-28T07:38:39;6.85;;;4.60;;
69956;SDS011;57283;54.816;9.482;2023-07-28T07:41:07;6.90;;;5.30;;
69956;SDS011;57283;54.816;9.482;2023-07-28T07:43:36;6.80;;;5.00;;
69956;SDS011;57283;54.816;9.482;2023-07-28T07:46:05;6.60;;;4.73;;
69956;SDS011;57283;54.816;9.482;2023-07-28T07:48:33;6.78;;;4.80;;
69956;SDS011;57283;54.816;9.482;2023-07-28T07:51:01;8.15;;;5.47;;
69956;SDS011;57283;54.816;9.482;2023-07-28T07:53:28;8.07;;;4.57;;
69956;SDS011;57283;54.816;9.482;2023-07-28T07:55:56;7.05;;;4.43;;
69956;SDS011;57283;54.816;9.482;2023-07-28T07:58:24;7.27;;;4.90;;
69956;SDS011;57283;54.816;9.482;2023-07-28T08:00:52;6.83;;;5.20;;
69956;SDS011;57283;54.816;9.482;2023-07-28T08:03:21;6.15;;;4.50;;
69956;SDS011;57283;54.816;9.482;2023-07-28T08:05:48;6.55;;;4.63;;
69956;SDS011;57283;54.816;9.482;2023-07-28T08:08:16;6.18;;;4.65;;
69956;SDS011;57283;54.816;9.482;2023-07-28T08:10:45;5.88;;;4.50;;
69956;SDS011;57283;54.816;9.482;2023-07-28T08:13:13;7.03;;;4.50;;
69956;SDS011;57283;54.816;9.482;2023-07-28T08:15:42;7.25;;;4.18;;
69956;SDS011;57283;54.816;9.482;2023-07-28T08:18:10;5.25;;;3.90;;
69956;SDS011;57283;54.816;9.482;2023-07-28T08:20:39;5.88;;;4.00;;
69956;SDS011;57283;54.816;9.482;2023-07-28T08:23:07;7.60;;;4.57;;
69956;SDS011;57283;54.816;9.482;2023-07-28T08:25:35;6.07;;;3.90;;
69956;SDS011;57283;54.816;9.482;2023-07-28T08:28:03;7.57;;;4.60;;
69956;SDS011;57283;54.816;9.482;2023-07-28T08:30:31;5.57;;;4.18;;
69956;SDS011;57283;54.816;9.482;2023-07-28T08:32:59;5.90;;;3.95;;
69956;SDS011;57283;54.816;9.482;2023-07-28T08:35:26;5.47;;;3.85;;
69956;SDS011;57283;54.816;9.482;2023-07-28T08:37:56;5.43;;;4.30;;
69956;SDS011;57283;54.816;9.482;2023-07-28T08:40:23;6.22;;;4.10;;
69956;SDS011;57283;54.816;9.482;2023-07-28T08:42:53;5.68;;;4.25;;
69956;SDS011;57283;54.816;9.482;2023-07-28T08:45:21;5.10;;;4.20;;
69956;SDS011;57283;54.816;9.482;2023-07-28T08:47:50;4.63;;;3.90;;
69956;SDS011;57283;54.816;9.482;2023-07-28T08:50:18;5.60;;;4.00;;
69956;SDS011;57283;54.816;9.482;2023-07-28T08:52:46;5.28;;;3.92;;
69956;SDS011;57283;54.816;9.482;2023-07-28T08:55:17;4.80;;;4.00;;
69956;SDS011;57283;54.816;9.482;2023-07-28T08:57:44;4.82;;;3.80;;
69956;SDS011;57283;54.816;9.482;2023-07-28T09:00:12;5.57;;;4.13;;
69956;SDS011;57283;54.816;9.482;2023-07-28T09:02:41;5.63;;;4.25;;
69956;SDS011;57283;54.816;9.482;2023-07-28T09:05:15;5.77;;;4.00;;
69956;SDS011;57283;54.816;9.482;2023-07-28T09:07:44;4.75;;;3.20;;
69956;SDS011;57283;54.816;9.482;2023-07-28T09:10:12;4.70;;;3.38;;
69956;SDS011;57283;54.816;9.482;2023-07-28T09:12:45;5.53;;;3.13;;
69956;SDS011;57283;54.816;9.482;2023-07-28T09:15:13;4.57;;;3.30;;
69956;SDS011;57283;54.816;9.482;2023-07-28T09:17:41;5.83;;;4.20;;
69956;SDS011;57283;54.816;9.482;2023-07-28T09:20:11;5.07;;;3.80;;
69956;SDS011;57283;54.816;9.482;2023-07-28T09:22:39;5.88;;;4.28;;
69956;SDS011;57283;54.816;9.482;2023-07-28T09:25:11;4.45;;;3.20;;
69956;SDS011;57283;54.816;9.482;2023-07-28T09:27:39;5.15;;;3.40;;
69956;SDS011;57283;54.816;9.482;2023-07-28T09:30:08;5.63;;;3.90;;
69956;SDS011;57283;54.816;9.482;2023-07-28T09:32:36;4.47;;;3.37;;
69956;SDS011;57283;54.816;9.482;2023-07-28T09:35:07;5.00;;;3.20;;
69956;SDS011;57283;54.816;9.482;2023-07-28T09:37:37;4.57;;;3.80;;
69956;SDS011;57283;54.816;9.482;2023-07-28T09:40:06;4.20;;;3.20;;
69956;SDS011;57283;54.816;9.482;2023-07-28T09:42:34;3.97;;;2.90;;
69956;SDS011;57283;54.816;9.482;2023-07-28T09:45:02;4.40;;;2.93;;
69956;SDS011;57283;54.816;9.482;2023-07-28T09:47:31;5.00;;;3.00;;
69956;SDS011;57283;54.816;9.482;2023-07-28T09:49:59;4.25;;;3.50;;
69956;SDS011;57283;54.816;9.482;2023-07-28T09:52:30;4.20;;;3.33;;
69956;SDS011;57283;54.816;9.482;2023-07-28T09:54:58;3.67;;;2.85;;
69956;SDS011;57283;54.816;9.482;2023-07-28T09:57:26;4.33;;;3.20;;
69956;SDS011;57283;54.816;9.482;2023-07-28T09:59:55;3.80;;;3.10;;
69956;SDS011;57283;54.816;9.482;2023-07-28T10:02:23;4.90;;;3.10;;
69956;SDS011;57283;54.816;9.482;2023-07-28T10:04:53;4.43;;;3.65;;
69956;SDS011;57283;54.816;9.482;2023-07-28T10:07:22;4.97;;;3.72;;
69956;SDS011;57283;54.816;9.482;2023-07-28T10:09:51;4.97;;;4.03;;
69956;SDS011;57283;54.816;9.482;2023-07-28T10:12:21;4.20;;;3.65;;
69956;SDS011;57283;54.816;9.482;2023-07-28T10:14:59;4.30;;;2.80;;
69956;SDS011;57283;54.816;9.482;2023-07-28T10:17:30;4.30;;;3.50;;
69956;SDS011;57283;54.816;9.482;2023-07-28T10:19:59;3.85;;;3.20;;
69956;SDS011;57283;54.816;9.482;2023-07-28T10:22:27;3.78;;;3.20;;
69956;SDS011;57283;54.816;9.482;2023-07-28T10:24:55;4.35;;;3.50;;
69956;SDS011;57283;54.816;9.482;2023-07-28T10:27:29;4.40;;;3.35;;
69956;SDS011;57283;54.816;9.482;2023-07-28T10:29:57;4.18;;;3.30;;
69956;SDS011;57283;54.816;9.482;2023-07-28T10:32:26;3.80;;;3.38;;
69956;SDS011;57283;54.816;9.482;2023-07-28T10:35:03;3.67;;;3.10;;
69956;SDS011;57283;54.816;9.482;2023-07-28T10:37:33;4.13;;;3.13;;
69956;SDS011;57283;54.816;9.482;2023-07-28T10:42:48;6.65;;;3.00;;
69956;SDS011;57283;54.816;9.482;2023-07-28T10:45:16;4.18;;;3.50;;
69956;SDS011;57283;54.816;9.482;2023-07-28T10:47:44;3.97;;;3.08;;
69956;SDS011;57283;54.816;9.482;2023-07-28T10:50:14;3.70;;;2.90;;
69956;SDS011;57283;54.816;9.482;2023-07-28T10:52:43;3.63;;;2.90;;
69956;SDS011;57283;54.816;9.482;2023-07-28T10:55:14;4.07;;;2.80;;
69956;SDS011;57283;54.816;9.482;2023-07-28T10:57:42;3.90;;;2.80;;
69956;SDS011;57283;54.816;9.482;2023-07-28T11:00:10;3.50;;;2.50;;
69956;SDS011;57283;54.816;9.482;2023-07-28T11:02:40;3.83;;;2.40;;
69956;SDS011;57283;54.816;9.482;2023-07-28T11:05:09;5.68;;;4.72;;
69956;SDS011;57283;54.816;9.482;2023-07-28T11:07:41;4.13;;;3.13;;
69956;SDS011;57283;54.816;9.482;2023-07-28T11:10:09;3.60;;;2.45;;
69956;SDS011;57283;54.816;9.482;2023-07-28T11:12:39;3.47;;;2.55;;
69956;SDS011;57283;54.816;9.482;2023-07-28T11:15:08;5.97;;;4.40;;
69956;SDS011;57283;54.816;9.482;2023-07-28T11:17:37;4.25;;;3.20;;
69956;SDS011;57283;54.816;9.482;2023-07-28T11:20:06;3.60;;;2.40;;
69956;SDS011;57283;54.816;9.482;2023-07-28T11:22:43;3.55;;;2.17;;
69956;SDS011;57283;54.816;9.482;2023-07-28T11:25:10;3.90;;;2.20;;
69956;SDS011;57283;54.816;9.482;2023-07-28T11:27:38;3.70;;;2.40;;
69956;SDS011;57283;54.816;9.482;2023-07-28T11:30:07;4.22;;;3.38;;
69956;SDS011;57283;54.816;9.482;2023-07-28T11:32:36;4.13;;;3.13;;
69956;SDS011;57283;54.816;9.482;2023-07-28T11:35:04;5.05;;;3.00;;
69956;SDS011;57283;54.816;9.482;2023-07-28T11:37:32;3.88;;;2.50;;
69956;SDS011;57283;54.816;9.482;2023-07-28T11:40:02;3.80;;;2.70;;
69956;SDS011;57283;54.816;9.482;2023-07-28T11:42:33;4.18;;;2.80;;
69956;SDS011;57283;54.816;9.482;2023-07-28T11:45:02;3.83;;;2.83;;
69956;SDS011;57283;54.816;9.482;2023-07-28T11:47:30;4.65;;;2.90;;
69956;SDS011;57283;54.816;9.482;2023-07-28T11:49:58;3.58;;;2.20;;
69956;SDS011;57283;54.816;9.482;2023-07-28T11:52:30;3.40;;;2.28;;
69956;SDS011;57283;54.816;9.482;2023-07-28T11:54:58;4.30;;;2.47;;
69956;SDS011;57283;54.816;9.482;2023-07-28T11:57:27;4.00;;;3.07;;
69956;SDS011;57283;54.816;9.482;2023-07-28T11:59:57;3.97;;;2.78;;
69956;SDS011;57283;54.816;9.482;2023-07-28T12:02:24;3.53;;;2.60;;
69956;SDS011;57283;54.816;9.482;2023-07-28T12:04:53;3.70;;;2.50;;
69956;SDS011;57283;54.816;9.482;2023-07-28T12:07:27;3.50;;;2.40;;
69956;SDS011;57283;54.816;9.482;2023-07-28T12:09:55;3.70;;;2.30;;
69956;SDS011;57283;54.816;9.482;2023-07-28T12:12:31;3.65;;;1.88;;
69956;SDS011;57283;54.816;9.482;2023-07-28T12:15:17;4.35;;;1.90;;
69956;SDS011;57283;54.816;9.482;2023-07-28T12:18:03;4.22;;;2.85;;
69956;SDS011;57283;54.816;9.482;2023-07-28T12:20:35;3.40;;;2.25;;
69956;SDS011;57283;54.816;9.482;2023-07-28T12:23:05;3.90;;;2.60;;
69956;SDS011;57283;54.816;9.482;2023-07-28T12:25:36;3.85;;;2.60;;
69956;SDS011;57283;54.816;9.482;2023-07-28T12:28:05;3.50;;;2.10;;
69956;SDS011;57283;54.816;9.482;2023-07-28T12:30:44;3.97;;;2.53;;
69956;SDS011;57283;54.816;9.482;2023-07-28T12:33:15;3.90;;;2.38;;
69956;SDS011;57283;54.816;9.482;2023-07-28T12:35:46;3.70;;;2.80;;
69956;SDS011;57283;54.816;9.482;2023-07-28T12:38:16;3.75;;;2.70;;
69956;SDS011;57283;54.816;9.482;2023-07-28T12:40:47;3.40;;;2.10;;
69956;SDS011;57283;54.816;9.482;2023-07-28T12:43:19;3.97;;;2.45;;
69956;SDS011;57283;54.816;9.482;2023-07-28T12:45:50;3.58;;;2.30;;
69956;SDS011;57283;54.816;9.482;2023-07-28T12:48:22;3.90;;;2.60;;
69956;SDS011;57283;54.816;9.482;2023-07-28T12:50:50;4.25;;;2.42;;
69956;SDS011;57283;54.816;9.482;2023-07-28T12:53:29;3.80;;;2.67;;
69956;SDS011;57283;54.816;9.482;2023-07-28T12:55:57;4.75;;;2.75;;
69956;SDS011;57283;54.816;9.482;2023-07-28T12:58:28;4.10;;;2.90;;
69956;SDS011;57283;54.816;9.482;2023-07-28T13:01:00;4.30;;;2.53;;
69956;SDS011;57283;54.816;9.482;2023-07-28T13:03:30;3.50;;;2.00;;
69956;SDS011;57283;54.816;9.482;2023-07-28T13:05:58;4.65;;;2.40;;
69956;SDS011;57283;54.816;9.482;2023-07-28T13:08:26;3.55;;;2.08;;
69956;SDS011;57283;54.816;9.482;2023-07-28T13:10:57;4.05;;;2.53;;
69956;SDS011;57283;54.816;9.482;2023-07-28T13:13:29;3.93;;;2.30;;
69956;SDS011;57283;54.816;9.482;2023-07-28T13:15:57;4.95;;;3.50;;
69956;SDS011;57283;54.816;9.482;2023-07-28T13:18:24;3.80;;;2.40;;
69956;SDS011;57283;54.816;9.482;2023-07-28T13:20:52;5.15;;;3.33;;
69956;SDS011;57283;54.816;9.482;2023-07-28T13:23:20;4.00;;;2.40;;
69956;SDS011;57283;54.816;9.482;2023-07-28T13:25:48;3.53;;;2.23;;
69956;SDS011;57283;54.816;9.482;2023-07-28T13:28:15;4.10;;;2.38;;
69956;SDS011;57283;54.816;9.482;2023-07-28T13:30:44;18.95;;;12.15;;
69956;SDS011;57283;54.816;9.482;2023-07-28T13:33:12;4.30;;;2.60;;
69956;SDS011;57283;54.816;9.482;2023-07-28T13:35:40;3.97;;;2.50;;
69956;SDS011;57283;54.816;9.482;2023-07-28T13:38:07;4.20;;;2.60;;
69956;SDS011;57283;54.816;9.482;2023-07-28T13:40:35;4.45;;;2.92;;
69956;SDS011;57283;54.816;9.482;2023-07-28T13:43:04;4.53;;;2.35;;
69956;SDS011;57283;54.816;9.482;2023-07-28T13:45:32;4.70;;;2.40;;
69956;SDS011;57283;54.816;9.482;2023-07-28T13:48:01;4.85;;;2.60;;
69956;SDS011;57283;54.816;9.482;2023-07-28T13:50:29;4.60;;;2.93;;
69956;SDS011;57283;54.816;9.482;2023-07-28T13:52:59;4.78;;;2.97;;
69956;SDS011;57283;54.816;9.482;2023-07-28T13:55:47;4.40;;;3.00;;
69956;SDS011;57283;54.816;9.482;2023-07-28T13:58:22;4.60;;;2.70;;
69956;SDS011;57283;54.816;9.482;2023-07-28T14:00:52;5.63;;;2.80;;
69956;SDS011;57283;54.816;9.482;2023-07-28T14:03:21;4.30;;;2.90;;
69956;SDS011;57283;54.816;9.482;2023-07-28T14:05:49;3.80;;;2.67;;
69956;SDS011;57283;54.816;9.482;2023-07-28T14:08:16;4.30;;;2.60;;
69956;SDS011;57283;54.816;9.482;2023-07-28T14:10:44;4.45;;;2.92;;
69956;SDS011;57283;54.816;9.482;2023-07-28T14:13:12;5.13;;;3.80;;
69956;SDS011;57283;54.816;9.482;2023-07-28T14:15:39;4.97;;;3.07;;
69956;SDS011;57283;54.816;9.482;2023-07-28T14:18:07;4.68;;;2.97;;
69956;SDS011;57283;54.816;9.482;2023-07-28T14:20:37;5.43;;;3.50;;
69956;SDS011;57283;54.816;9.482;2023-07-28T14:23:19;9.73;;;3.60;;
69956;SDS011;57283;54.816;9.482;2023-07-28T14:25:47;4.32;;;2.40;;
69956;SDS011;57283;54.816;9.482;2023-07-28T14:28:15;4.53;;;2.67;;
69956;SDS011;57283;54.816;9.482;2023-07-28T14:30:42;4.05;;;2.72;;
69956;SDS011;57283;54.816;9.482;2023-07-28T14:33:12;4.30;;;2.75;;
69956;SDS011;57283;54.816;9.482;2023-07-28T14:35:42;4.47;;;2.63;;
69956;SDS011;57283;54.816;9.482;2023-07-28T14:38:10;5.22;;;3.30;;
69956;SDS011;57283;54.816;9.482;2023-07-28T14:40:38;4.30;;;2.97;;
69956;SDS011;57283;54.816;9.482;2023-07-28T14:43:06;5.50;;;2.95;;
69956;SDS011;57283;54.816;9.482;2023-07-28T14:45:34;4.68;;;2.90;;
69956;SDS011;57283;54.816;9.482;2023-07-28T14:48:02;4.20;;;2.53;;
69956;SDS011;57283;54.816;9.482;2023-07-28T14:50:30;7.30;;;2.90;;
69956;SDS011;57283;54.816;9.482;2023-07-28T14:52:59;4.60;;;2.67;;
69956;SDS011;57283;54.816;9.482;2023-07-28T14:55:26;4.28;;;2.35;;
69956;SDS011;57283;54.816;9.482;2023-07-28T14:57:54;4.20;;;2.60;;